Time;durP1;ratioP1;P1;durP2;ratioP2;P2;SDS_P1;SDS_P2;PMS_P1;PMS_P2;Temp;Humidity;BMP_temperature;BMP_pressure;BME280_temperature;BME280_humidity;BME280_pressure;Samples;Min_cycle;Max_cycle;Signal;HPM_P1;HPM_P2
2022/09/29 00:01:09;;;;;;;5.93;4.72;;;;;;;8.76;98.65;99257.50;5033747;28;20053;-64
2022/09/29 00:03:36;;;;;;;7.13;5.22;;;;;;;8.72;99.06;99256.88;5032428;28;20048;-62
2022/09/29 00:06:11;;;;;;;6.63;5.07;;;;;;;8.66;99.89;99259.13;5032582;28;20536;-62
2022/09/29 00:08:38;;;;;;;6.40;4.20;;;;;;;8.65;98.94;99257.44;5030305;28;20061;-62
2022/09/29 00:11:09;;;;;;;5.53;4.75;;;;;;;8.66;99.22;99259.13;5027330;28;20409;-62
2022/09/29 00:13:37;;;;;;;7.10;5.18;;;;;;;8.57;100.00;99261.47;5027504;28;20048;-62
2022/09/29 00:16:05;;;;;;;6.18;5.22;;;;;;;8.54;100.00;99264.28;5026550;28;20540;-63
2022/09/29 00:18:33;;;;;;;7.13;5.80;;;;;;;8.55;100.00;99260.72;5035485;28;20056;-60
2022/09/29 00:21:12;;;;;;;7.60;5.85;;;;;;;8.43;100.00;99256.38;5035446;28;20057;-62
2022/09/29 00:23:40;;;;;;;8.82;5.38;;;;;;;8.36;100.00;99260.34;5032728;28;20045;-62
2022/09/29 00:26:09;;;;;;;6.80;5.43;;;;;;;8.34;100.00;99265.69;5032917;28;20589;-63
2022/09/29 00:28:39;;;;;;;6.97;5.72;;;;;;;8.35;100.00;99258.66;5032248;28;20050;-63
2022/09/29 00:31:08;;;;;;;6.85;4.88;;;;;;;8.34;100.00;99257.00;5011338;28;20045;-63
2022/09/29 00:33:36;;;;;;;6.07;5.03;;;;;;;8.39;100.00;99254.06;5032679;28;20058;-63
2022/09/29 00:36:06;;;;;;;10.05;5.60;;;;;;;8.46;99.70;99255.28;5029803;28;20137;-63
2022/09/29 00:38:34;;;;;;;5.25;4.60;;;;;;;8.51;98.71;99254.03;5030988;28;20192;-62
2022/09/29 00:41:04;;;;;;;9.60;5.90;;;;;;;8.51;98.07;99255.78;5031782;28;20061;-62
2022/09/29 00:44:06;;;;;;;8.63;4.80;;;;;;;8.48;97.60;99253.41;5031825;28;20120;-60
2022/09/29 00:46:53;;;;;;;8.43;5.22;;;;;;;8.49;97.05;99255.91;4985651;28;20054;-61
2022/09/29 00:49:35;;;;;;;13.40;5.00;;;;;;;8.51;96.09;99255.78;5018446;28;20069;-62
2022/09/29 00:52:11;;;;;;;8.20;6.18;;;;;;;8.52;96.35;99255.72;5010580;28;20058;-62
2022/09/29 00:54:48;;;;;;;7.70;5.15;;;;;;;8.47;95.97;99255.22;5030097;28;20502;-61
2022/09/29 00:57:19;;;;;;;6.28;5.32;;;;;;;8.44;97.11;99254.59;5022941;28;20061;-62
2022/09/29 01:00:08;;;;;;;7.28;4.97;;;;;;;8.38;96.47;99248.00;5028070;28;20056;-63
2022/09/29 01:02:39;;;;;;;5.60;4.65;;;;;;;8.41;95.92;99254.78;5019020;28;20052;-61
2022/09/29 01:05:10;;;;;;;5.68;4.65;;;;;;;8.41;95.74;99254.78;5026927;28;20056;-61
2022/09/29 01:07:38;;;;;;;6.85;5.47;;;;;;;8.40;95.30;99261.00;5029026;28;20045;-62
2022/09/29 01:10:06;;;;;;;5.55;5.00;;;;;;;8.40;94.78;99261.81;5025331;28;20064;-59
2022/09/29 01:12:36;;;;;;;5.57;4.75;;;;;;;8.40;95.10;99261.81;5032211;28;20048;-61
2022/09/29 01:15:05;;;;;;;10.50;5.10;;;;;;;8.39;94.33;99264.56;5020737;28;20049;-62
2022/09/29 01:17:32;;;;;;;6.65;5.35;;;;;;;8.38;94.26;99265.53;5026626;28;20084;-62
2022/09/29 01:20:12;;;;;;;8.05;5.63;;;;;;;8.37;94.01;99264.66;5032420;28;20045;-61
2022/09/29 01:23:08;;;;;;;6.40;4.72;;;;;;;8.30;94.37;99266.03;5025602;28;20057;-62
2022/09/29 01:25:58;;;;;;;6.32;5.13;;;;;;;8.23;94.15;99281.34;5028161;28;20049;-63
2022/09/29 01:28:31;;;;;;;5.70;4.82;;;;;;;8.22;94.26;99276.22;5028953;28;20060;-61
2022/09/29 01:31:15;;;;;;;5.28;4.65;;;;;;;8.19;94.30;99279.03;5023487;28;20506;-61
2022/09/29 01:34:06;;;;;;;6.68;5.00;;;;;;;8.17;94.34;99288.81;5027697;28;20054;-61
2022/09/29 01:36:59;;;;;;;7.28;5.60;;;;;;;8.13;93.92;99289.03;5010249;28;20088;-63
2022/09/29 01:39:36;;;;;;;6.85;5.45;;;;;;;8.16;93.69;99292.38;5012769;28;20065;-62
2022/09/29 01:42:35;;;;;;;7.13;6.05;;;;;;;8.09;94.49;99297.22;5028783;28;20075;-62
2022/09/29 01:45:13;;;;;;;7.43;5.72;;;;;;;8.09;93.83;99292.78;5024226;28;20045;-62
2022/09/29 01:47:44;;;;;;;8.23;5.95;;;;;;;8.10;94.15;99299.75;5025928;28;20441;-62
2022/09/29 01:50:16;;;;;;;9.32;5.72;;;;;;;8.10;93.81;99294.50;5026416;28;20071;-62
2022/09/29 01:52:50;;;;;;;8.85;6.03;;;;;;;8.08;94.47;99298.16;5026864;28;20120;-63
2022/09/29 01:55:20;;;;;;;9.30;6.18;;;;;;;8.10;94.95;99291.88;5011810;28;20049;-61
2022/09/29 01:57:58;;;;;;;7.85;5.60;;;;;;;8.09;95.53;99297.22;5025558;28;20243;-63
2022/09/29 02:00:30;;;;;;;11.52;6.70;;;;;;;8.05;96.35;99295.75;5028563;28;20574;-62
2022/09/29 02:03:04;;;;;;;9.07;6.18;;;;;;;8.04;95.44;99300.16;5041593;28;20057;-64
2022/09/29 02:05:51;;;;;;;9.63;6.45;;;;;;;8.07;95.62;99302.56;5012528;28;20406;-63
2022/09/29 02:08:31;;;;;;;8.23;6.57;;;;;;;8.02;96.29;99307.28;5021385;28;20131;-62
2022/09/29 02:11:02;;;;;;;7.72;5.63;;;;;;;8.05;96.62;99304.44;5043790;28;20163;-61
2022/09/29 02:13:33;;;;;;;7.68;6.60;;;;;;;8.08;96.51;99309.47;5030991;28;20103;-62
2022/09/29 02:16:04;;;;;;;8.65;6.07;;;;;;;8.03;95.95;99308.97;5025228;28;20520;-62
2022/09/29 02:18:39;;;;;;;6.63;5.47;;;;;;;8.02;95.85;99309.91;5029534;28;20077;-62
2022/09/29 02:21:06;;;;;;;7.80;6.57;;;;;;;8.04;96.66;99307.19;5024634;28;20049;-61
2022/09/29 02:23:33;;;;;;;7.55;5.95;;;;;;;7.98;96.70;99307.59;5013914;28;20046;-63
2022/09/29 02:26:01;;;;;;;8.65;6.03;;;;;;;7.98;96.64;99311.06;5028437;28;20124;-62
2022/09/29 02:28:28;;;;;;;8.50;6.30;;;;;;;8.05;96.09;99309.69;5029648;28;20305;-60
2022/09/29 02:30:56;;;;;;;11.70;7.30;;;;;;;8.08;95.26;99309.47;5026725;28;20145;-63
2022/09/29 02:33:24;;;;;;;7.40;5.50;;;;;;;8.06;95.51;99318.38;5014134;28;20073;-61
2022/09/29 02:36:00;;;;;;;8.85;6.10;;;;;;;8.04;95.42;99310.63;5015490;28;20045;-63
2022/09/29 02:38:37;;;;;;;8.93;7.05;;;;;;;7.98;96.03;99311.06;5026173;28;20420;-63
2022/09/29 02:41:26;;;;;;;7.22;6.35;;;;;;;7.89;98.55;99314.31;5025167;28;20049;-61
2022/09/29 02:44:08;;;;;;;8.70;6.53;;;;;;;7.87;97.84;99310.94;5038743;28;20598;-62
2022/09/29 02:46:45;;;;;;;8.63;6.72;;;;;;;7.89;97.46;99319.56;5021050;28;20076;-63
2022/09/29 02:49:27;;;;;;;8.90;6.78;;;;;;;7.92;98.30;99321.94;5027729;28;20068;-63
2022/09/29 02:52:22;;;;;;;8.77;6.45;;;;;;;7.94;97.65;99324.50;5039282;28;20053;-62
2022/09/29 02:55:11;;;;;;;9.37;7.37;;;;;;;7.92;100.00;99321.13;5016194;28;20061;-62
2022/09/29 02:57:38;;;;;;;11.82;7.43;;;;;;;7.88;99.51;99325.75;5029931;28;20556;-63
2022/09/29 03:00:10;;;;;;;9.02;7.10;;;;;;;7.94;99.65;99321.88;5032162;28;20060;-62
2022/09/29 03:02:39;;;;;;;9.18;7.15;;;;;;;7.91;100.00;99329.94;5016161;28;20053;-59
2022/09/29 03:05:16;;;;;;;8.13;7.30;;;;;;;7.90;100.00;99336.13;5028360;28;20053;-62
2022/09/29 03:07:43;;;;;;;8.23;6.85;;;;;;;7.93;100.00;99322.81;5032221;28;20057;-64
2022/09/29 03:10:12;;;;;;;8.70;7.22;;;;;;;7.98;100.00;99339.06;5030973;28;20055;-61
2022/09/29 03:12:39;;;;;;;10.45;8.43;;;;;;;7.95;100.00;99329.59;5031373;28;20465;-63
2022/09/29 03:15:07;;;;;;;7.97;7.18;;;;;;;7.96;100.00;99327.81;5042903;28;20045;-61
2022/09/29 03:17:34;;;;;;;9.57;8.43;;;;;;;7.95;100.00;99329.59;5030259;28;20056;-63
2022/09/29 03:20:02;;;;;;;12.60;9.00;;;;;;;7.91;100.00;99332.56;5032758;28;20055;-61
2022/09/29 03:22:30;;;;;;;10.57;9.35;;;;;;;7.89;100.00;99332.66;5029684;28;20056;-63
2022/09/29 03:24:57;;;;;;;9.13;7.57;;;;;;;7.92;100.00;99328.97;5031418;28;20048;-63
2022/09/29 03:27:24;;;;;;;10.57;9.40;;;;;;;8.00;100.00;99332.75;5034584;28;20571;-63
2022/09/29 03:29:51;;;;;;;10.98;9.52;;;;;;;7.91;100.00;99327.31;5028246;28;20055;-62
2022/09/29 03:32:18;;;;;;;11.48;8.75;;;;;;;7.91;100.00;99328.16;5033806;28;20491;-61
2022/09/29 03:34:45;;;;;;;10.45;8.23;;;;;;;7.96;100.00;99326.03;5031546;28;20060;-61
2022/09/29 03:37:12;;;;;;;11.98;8.27;;;;;;;8.00;100.00;99332.75;5025409;28;20446;-61
2022/09/29 03:39:40;;;;;;;11.52;8.98;;;;;;;8.05;100.00;99335.06;5024361;28;20513;-63
2022/09/29 03:42:07;;;;;;;12.27;9.43;;;;;;;8.05;100.00;99328.03;5031593;28;20057;-63
2022/09/29 03:44:34;;;;;;;12.38;9.70;;;;;;;7.99;100.00;99330.25;5027511;28;20052;-62
2022/09/29 03:47:01;;;;;;;12.63;8.52;;;;;;;7.96;100.00;99335.69;5027822;28;20656;-62
2022/09/29 03:49:29;;;;;;;10.82;9.20;;;;;;;8.03;100.00;99342.19;5025927;28;20060;-63
2022/09/29 03:51:56;;;;;;;10.50;8.38;;;;;;;8.07;100.00;99338.44;5036222;28;20049;-61
2022/09/29 03:54:25;;;;;;;10.35;8.70;;;;;;;7.99;100.00;99338.94;5031899;28;20053;-62
2022/09/29 03:56:52;;;;;;;12.55;9.95;;;;;;;8.02;100.00;99351.84;5012426;28;20054;-63
2022/09/29 03:59:19;;;;;;;11.65;8.93;;;;;;;8.01;100.00;99344.06;5029792;28;20053;-62
2022/09/29 04:01:46;;;;;;;10.88;9.10;;;;;;;8.04;100.00;99354.34;5026556;28;20065;-63
2022/09/29 04:04:14;;;;;;;11.55;9.40;;;;;;;8.06;100.00;99348.06;5028712;28;20053;-62
2022/09/29 04:06:41;;;;;;;12.00;9.10;;;;;;;8.10;100.00;99348.69;5030237;28;20042;-63
2022/09/29 04:09:08;;;;;;;11.20;9.48;;;;;;;8.07;100.00;99352.38;5029847;28;20058;-63
2022/09/29 04:11:35;;;;;;;13.60;9.38;;;;;;;8.07;100.00;99349.75;5027880;28;20440;-62
2022/09/29 04:14:02;;;;;;;13.25;9.23;;;;;;;8.13;99.31;99351.94;5029986;28;20530;-63
2022/09/29 04:16:29;;;;;;;13.10;10.35;;;;;;;8.20;100.00;99354.16;5028015;28;20548;-63
2022/09/29 04:18:57;;;;;;;10.60;8.85;;;;;;;8.22;99.53;99352.25;5030304;28;20145;-62
2022/09/29 04:21:24;;;;;;;10.10;8.48;;;;;;;8.24;99.60;99363.44;5021943;28;20050;-64
2022/09/29 04:23:51;;;;;;;11.32;9.60;;;;;;;8.22;100.00;99360.09;5025464;28;20058;-63
2022/09/29 04:26:19;;;;;;;12.82;10.57;;;;;;;8.18;100.00;99358.63;5026706;28;20053;-62
2022/09/29 04:28:46;;;;;;;11.00;9.32;;;;;;;8.20;100.00;99362.84;5021605;28;20145;-62
2022/09/29 04:31:13;;;;;;;13.32;9.32;;;;;;;8.22;100.00;99362.72;5021237;28;20065;-62
2022/09/29 04:33:41;;;;;;;14.20;10.85;;;;;;;8.17;100.00;99365.66;5032263;28;20058;-62
2022/09/29 04:36:08;;;;;;;11.43;9.38;;;;;;;8.15;100.00;99362.34;5032821;28;20053;-64
2022/09/29 04:38:35;;;;;;;13.25;10.30;;;;;;;8.19;100.00;99370.78;5027485;28;20064;-63
2022/09/29 04:41:03;;;;;;;12.30;10.27;;;;;;;8.18;100.00;99374.38;5024678;28;20056;-63
2022/09/29 04:43:30;;;;;;;10.98;8.82;;;;;;;8.21;100.00;99375.00;5033498;28;20057;-63
2022/09/29 04:46:04;;;;;;;11.27;9.90;;;;;;;8.27;100.00;99385.06;5026618;28;20124;-63
2022/09/29 04:48:32;;;;;;;11.55;9.23;;;;;;;8.33;100.00;99378.53;5035133;28;20057;-63
2022/09/29 04:51:03;;;;;;;11.68;10.00;;;;;;;8.37;100.00;99382.66;5036837;28;20053;-63
2022/09/29 04:53:30;;;;;;;11.55;9.90;;;;;;;8.37;99.49;99382.66;5030774;28;20057;-62
2022/09/29 04:55:57;;;;;;;12.07;10.55;;;;;;;8.42;100.00;99384.97;5019873;28;20046;-62
2022/09/29 04:58:24;;;;;;;11.20;9.65;;;;;;;8.43;99.92;99386.66;5028241;28;20074;-62
2022/09/29 05:00:51;;;;;;;12.52;10.05;;;;;;;8.41;99.61;99384.13;5029178;28;20060;-64
2022/09/29 05:03:19;;;;;;;12.95;10.38;;;;;;;8.39;100.00;99386.03;5024748;28;20061;-62
2022/09/29 05:05:46;;;;;;;12.80;10.68;;;;;;;8.32;100.00;99387.34;5026238;28;20049;-63
2022/09/29 05:08:13;;;;;;;18.73;12.00;;;;;;;8.30;100.00;99390.09;5019073;28;20064;-63
2022/09/29 05:10:41;;;;;;;14.43;11.43;;;;;;;8.26;100.00;99383.38;5041456;28;20091;-62
2022/09/29 05:13:09;;;;;;;14.50;11.23;;;;;;;8.26;100.00;99393.03;5025127;28;20149;-63
2022/09/29 05:15:36;;;;;;;13.20;10.50;;;;;;;8.29;100.00;99398.06;5019224;28;20045;-62
2022/09/29 05:18:03;;;;;;;13.43;10.27;;;;;;;8.30;100.00;99391.88;5027708;28;20045;-63
2022/09/29 05:20:31;;;;;;;13.25;11.18;;;;;;;8.29;100.00;99396.28;5027324;28;20061;-63
2022/09/29 05:23:08;;;;;;;13.60;9.70;;;;;;;8.31;100.00;99396.19;5026786;28;20060;-62
2022/09/29 05:25:36;;;;;;;14.07;10.77;;;;;;;8.39;100.00;99403.56;5034459;28;20050;-63
2022/09/29 05:28:04;;;;;;;12.48;10.20;;;;;;;8.43;99.75;99403.22;5029129;28;20068;-63
2022/09/29 05:30:31;;;;;;;12.15;9.80;;;;;;;8.45;99.04;99397.88;5026170;28;20065;-62
2022/09/29 05:32:58;;;;;;;14.70;10.70;;;;;;;8.46;99.42;99402.16;5027001;28;20054;-62
2022/09/29 05:35:25;;;;;;;11.32;9.95;;;;;;;8.43;99.54;99403.22;5025366;28;20056;-62
2022/09/29 05:37:53;;;;;;;11.40;9.35;;;;;;;8.46;98.83;99400.38;5017539;28;20071;-63
2022/09/29 05:40:22;;;;;;;14.07;9.60;;;;;;;8.51;98.78;99405.31;5022340;28;20144;-62
2022/09/29 05:42:50;;;;;;;16.52;12.25;;;;;;;8.52;98.42;99405.22;5025971;28;20092;-61
2022/09/29 05:45:18;;;;;;;15.13;11.13;;;;;;;8.50;99.23;99399.22;5020743;28;20076;-62
2022/09/29 05:47:45;;;;;;;12.23;9.85;;;;;;;8.55;99.29;99404.16;5024229;28;20461;-64
2022/09/29 05:50:12;;;;;;;12.35;9.65;;;;;;;8.59;99.08;99409.06;5024372;28;20532;-62
2022/09/29 05:52:40;;;;;;;12.30;10.35;;;;;;;8.58;98.94;99398.69;5025894;28;20077;-63
2022/09/29 05:55:09;;;;;;;12.73;9.48;;;;;;;8.61;99.31;99401.94;5024106;28;20068;-62
2022/09/29 05:57:37;;;;;;;14.43;10.45;;;;;;;8.67;98.52;99402.47;5023548;28;20057;-62
2022/09/29 06:00:05;;;;;;;13.25;10.18;;;;;;;8.68;99.03;99404.13;5022918;28;20045;-61
2022/09/29 06:02:32;;;;;;;15.32;11.27;;;;;;;8.70;98.84;99407.50;5022415;28;20159;-60
2022/09/29 06:05:00;;;;;;;13.38;10.98;;;;;;;8.69;99.06;99406.66;5020954;28;20441;-61
2022/09/29 06:07:27;;;;;;;13.63;10.77;;;;;;;8.73;98.32;99409.88;5028721;28;20056;-61
2022/09/29 06:09:54;;;;;;;12.70;10.52;;;;;;;8.77;99.46;99419.22;5026340;28;20053;-61
2022/09/29 06:12:21;;;;;;;15.00;11.00;;;;;;;8.81;99.83;99420.69;5031857;28;20118;-63
2022/09/29 06:14:48;;;;;;;15.68;11.15;;;;;;;8.84;99.50;99413.44;5024840;28;20095;-61
2022/09/29 06:17:16;;;;;;;15.10;11.23;;;;;;;8.85;99.13;99422.16;5033374;28;20061;-62
2022/09/29 06:19:43;;;;;;;15.40;11.20;;;;;;;8.89;99.69;99415.72;5028155;28;20548;-62
2022/09/29 06:22:11;;;;;;;15.82;11.80;;;;;;;8.93;99.23;99421.63;5026700;28;20065;-62
2022/09/29 06:24:38;;;;;;;13.95;10.98;;;;;;;8.94;99.56;99418.88;5026751;28;20053;-63
2022/09/29 06:27:05;;;;;;;11.75;10.45;;;;;;;8.93;99.66;99425.06;5031359;28;20045;-62
2022/09/29 06:29:32;;;;;;;15.95;11.18;;;;;;;8.96;99.65;99429.25;5028337;28;20048;-61
2022/09/29 06:32:00;;;;;;;17.35;11.60;;;;;;;8.97;99.91;99429.16;5024085;28;20125;-62
2022/09/29 06:34:27;;;;;;;15.20;11.45;;;;;;;8.98;99.61;99425.56;5031603;28;20398;-61
2022/09/29 06:39:41;;;;;;;14.13;10.38;;;;;;;8.96;99.37;99429.25;5029147;28;20053;-61
2022/09/29 06:42:08;;;;;;;21.23;12.80;;;;;;;8.93;100.00;99425.06;5032112;28;20494;-62
2022/09/29 06:44:35;;;;;;;15.85;11.73;;;;;;;8.85;100.00;99425.59;5031265;28;20502;-62
2022/09/29 06:47:02;;;;;;;13.88;10.60;;;;;;;8.87;100.00;99434.22;5026796;28;20414;-62
2022/09/29 06:49:29;;;;;;;20.35;11.95;;;;;;;8.92;100.00;99431.28;5034843;28;20053;-62
2022/09/29 06:51:57;;;;;;;15.70;12.25;;;;;;;8.93;100.00;99432.94;5033283;28;20064;-62
2022/09/29 06:54:24;;;;;;;14.77;11.25;;;;;;;8.97;99.94;99439.66;5029712;28;20391;-63
2022/09/29 06:56:54;;;;;;;18.35;13.80;;;;;;;8.96;100.00;99434.50;5032438;28;20046;-62
2022/09/29 06:59:21;;;;;;;17.90;12.48;;;;;;;8.90;100.00;99438.41;5034972;28;20068;-63
2022/09/29 07:01:49;;;;;;;15.38;11.55;;;;;;;8.92;100.00;99439.16;5033231;28;20050;-63
2022/09/29 07:04:18;;;;;;;16.95;12.35;;;;;;;8.98;100.00;99438.69;5024431;28;20049;-62
2022/09/29 07:06:46;;;;;;;18.35;13.15;;;;;;;9.04;100.00;99445.28;5039336;28;20049;-63
2022/09/29 07:09:16;;;;;;;23.30;14.18;;;;;;;9.05;100.00;99444.34;5020740;28;20057;-62
2022/09/29 07:11:46;;;;;;;15.63;12.43;;;;;;;9.05;100.00;99446.97;5035798;28;20231;-62
2022/09/29 07:14:14;;;;;;;16.40;12.65;;;;;;;9.02;100.00;99445.41;5037545;28;20049;-62
2022/09/29 07:16:41;;;;;;;20.67;13.65;;;;;;;8.99;100.00;99447.41;5029305;28;20058;-63
2022/09/29 07:19:09;;;;;;;18.20;13.55;;;;;;;9.02;100.00;99449.81;5028474;28;20128;-62
2022/09/29 07:21:36;;;;;;;16.77;12.88;;;;;;;9.04;99.57;99451.38;5028222;28;20057;-63
2022/09/29 07:24:03;;;;;;;17.73;13.65;;;;;;;9.11;99.00;99455.25;5028959;28;20041;-63
2022/09/29 07:26:30;;;;;;;16.98;13.18;;;;;;;9.15;99.24;99452.41;5032005;28;20042;-63
2022/09/29 07:28:57;;;;;;;18.13;13.45;;;;;;;9.17;99.09;99463.63;5026574;28;20061;-63
2022/09/29 07:31:24;;;;;;;17.52;13.77;;;;;;;9.19;98.33;99459.13;5021526;28;20058;-62
2022/09/29 07:33:52;;;;;;;18.38;14.13;;;;;;;9.21;98.19;99463.31;5032440;28;20057;-63
2022/09/29 07:36:19;;;;;;;21.88;14.30;;;;;;;9.19;98.35;99464.38;5030412;28;20053;-62
2022/09/29 07:38:48;;;;;;;19.20;14.32;;;;;;;9.04;99.26;99479.41;5032955;28;20076;-63
2022/09/29 07:41:20;;;;;;;24.90;17.13;;;;;;;8.95;99.67;99478.28;5038556;28;20063;-63
2022/09/29 07:43:47;;;;;;;19.17;14.93;;;;;;;8.90;99.78;99475.16;5029344;28;20068;-63
2022/09/29 07:46:14;;;;;;;21.52;14.38;;;;;;;8.94;100.00;99476.59;5030787;28;20065;-63
2022/09/29 07:48:41;;;;;;;21.75;15.25;;;;;;;9.01;100.00;99477.88;5030942;28;20065;-62
2022/09/29 07:51:13;;;;;;;21.98;15.55;;;;;;;9.08;99.03;99481.72;5030496;28;20062;-63
2022/09/29 07:53:41;;;;;;;19.48;14.52;;;;;;;9.13;99.20;99486.63;5024521;28;20441;-61
2022/09/29 07:56:13;;;;;;;23.73;15.23;;;;;;;9.18;98.81;99492.41;5025415;28;20064;-63
2022/09/29 07:58:41;;;;;;;20.55;15.50;;;;;;;9.21;98.17;99493.97;5035157;28;20049;-63
2022/09/29 08:01:11;;;;;;;25.58;15.93;;;;;;;9.22;97.99;99491.25;5030101;28;20045;-63
2022/09/29 08:03:40;;;;;;;29.20;15.05;;;;;;;9.26;97.86;99495.31;5000003;28;20065;-61
2022/09/29 08:06:08;;;;;;;23.35;16.35;;;;;;;9.25;97.89;99493.66;5009736;28;20061;-62
2022/09/29 08:08:38;;;;;;;22.60;15.82;;;;;;;9.28;97.75;99497.88;5010718;28;20049;-60
2022/09/29 08:11:11;;;;;;;23.52;16.38;;;;;;;9.29;97.38;99497.75;5025236;28;20053;-62
2022/09/29 08:13:55;;;;;;;25.00;16.55;;;;;;;9.35;97.59;99509.59;5036742;28;20068;-61
2022/09/29 08:16:22;;;;;;;25.17;17.50;;;;;;;9.37;97.75;99505.91;5031836;28;20053;-61
2022/09/29 08:18:49;;;;;;;23.45;16.23;;;;;;;9.41;97.76;99509.16;5014902;28;20064;-61
2022/09/29 08:21:17;;;;;;;22.60;15.80;;;;;;;9.44;97.37;99506.28;5024024;28;20057;-61
2022/09/29 08:23:44;;;;;;;24.10;16.25;;;;;;;9.50;97.10;99516.38;5029249;28;20064;-61
2022/09/29 08:26:19;;;;;;;20.38;16.63;;;;;;;9.50;96.93;99516.38;5034331;28;20046;-61
2022/09/29 08:28:59;;;;;;;23.55;17.00;;;;;;;9.48;97.17;99515.63;5030315;28;20049;-61
2022/09/29 08:31:36;;;;;;;20.55;16.08;;;;;;;9.54;96.92;99514.34;5033144;28;20052;-61
2022/09/29 08:34:04;;;;;;;20.88;16.02;;;;;;;9.61;96.31;99519.06;5037231;28;20060;-61
2022/09/29 08:36:31;;;;;;;18.65;15.77;;;;;;;9.64;96.74;99518.00;5028114;28;20410;-61
2022/09/29 08:38:58;;;;;;;18.33;15.20;;;;;;;9.64;96.74;99518.84;5035234;28;20057;-62
2022/09/29 08:41:47;;;;;;;24.05;15.57;;;;;;;9.66;96.97;99515.25;5022828;28;20100;-60
2022/09/29 08:44:23;;;;;;;23.80;16.10;;;;;;;9.66;97.11;99517.88;5028159;28;20038;-62
2022/09/29 08:47:20;;;;;;;18.23;15.38;;;;;;;9.71;97.73;99526.28;5030053;28;20053;-62
2022/09/29 08:49:54;;;;;;;21.60;15.73;;;;;;;9.79;97.25;99518.69;5029402;28;20053;-62
2022/09/29 08:52:30;;;;;;;21.65;16.08;;;;;;;9.91;96.88;99528.28;5026908;28;20633;-62
2022/09/29 08:55:15;;;;;;;21.27;15.50;;;;;;;9.97;96.50;99530.47;5049850;23;20045;-64
2022/09/29 08:57:58;;;;;;;27.75;16.38;;;;;;;10.07;96.70;99530.63;5042620;28;20071;-65
2022/09/29 09:00:51;;;;;;;20.60;15.38;;;;;;;10.10;96.21;99533.88;5039786;28;20067;-65
2022/09/29 09:03:31;;;;;;;19.15;15.05;;;;;;;10.16;96.19;99532.56;4978037;28;20495;-65
2022/09/29 09:06:05;;;;;;;19.90;14.80;;;;;;;10.23;94.95;99535.59;5027863;28;20041;-64
2022/09/29 09:08:52;;;;;;;23.45;15.63;;;;;;;10.28;94.77;99533.47;5031738;28;20049;-65
2022/09/29 09:11:53;;;;;;;19.40;14.60;;;;;;;10.32;95.18;99534.94;5046483;28;20068;-64
2022/09/29 09:14:54;;;;;;;21.52;15.80;;;;;;;10.41;94.66;99533.41;5044744;28;20420;-65
2022/09/29 09:17:38;;;;;;;20.60;15.57;;;;;;;10.48;94.68;99542.47;5041620;28;20425;-66
2022/09/29 09:20:20;;;;;;;20.42;14.38;;;;;;;10.52;93.93;99542.13;5029925;28;20208;-65
2022/09/29 09:22:58;;;;;;;22.10;15.98;;;;;;;10.55;93.50;99539.28;5046044;28;20045;-64
2022/09/29 09:25:32;;;;;;;21.77;15.07;;;;;;;10.63;93.20;99541.34;5027045;28;20429;-64
2022/09/29 09:28:17;;;;;;;17.83;14.23;;;;;;;10.72;92.70;99539.81;5046621;28;20366;-64
2022/09/29 09:30:56;;;;;;;17.95;14.68;;;;;;;10.82;92.18;99544.22;5027078;28;20555;-64
2022/09/29 09:33:30;;;;;;;20.15;14.55;;;;;;;10.90;91.92;99541.84;5028274;28;20473;-64
2022/09/29 09:36:13;;;;;;;17.73;14.48;;;;;;;10.99;91.62;99550.84;5045201;28;20062;-64
2022/09/29 09:39:10;;;;;;;17.43;13.00;;;;;;;11.04;90.75;99547.84;5043416;28;20057;-64
2022/09/29 09:41:39;;;;;;;19.23;15.05;;;;;;;11.11;90.25;99549.84;5044148;28;20899;-64
2022/09/29 09:44:15;;;;;;;19.92;13.52;;;;;;;11.11;90.22;99555.13;5055849;28;20045;-65
2022/09/29 09:46:49;;;;;;;;;;;;;;;11.16;90.62;99552.13;5023524;28;20049;-64
2022/09/29 09:49:36;;;;;;;19.05;14.00;;;;;;;11.26;89.91;99563.63;5028579;28;20401;-65
2022/09/29 09:52:17;;;;;;;15.82;12.50;;;;;;;11.42;89.05;99563.25;5046380;28;20057;-64
2022/09/29 09:54:53;;;;;;;16.73;12.60;;;;;;;11.57;88.71;99566.44;5026366;28;20072;-65
2022/09/29 09:57:48;;;;;;;17.23;13.07;;;;;;;11.64;87.72;99568.47;5032817;28;20041;-64
2022/09/29 10:00:17;;;;;;;17.88;12.45;;;;;;;11.76;85.76;99566.69;5033685;28;20555;-64
2022/09/29 10:02:47;;;;;;;19.23;13.70;;;;;;;11.73;85.44;99561.63;5029404;28;20051;-64
2022/09/29 10:05:25;;;;;;;18.88;12.77;;;;;;;11.87;85.77;99569.31;5028494;28;20060;-64
2022/09/29 10:07:52;;;;;;;15.85;12.00;;;;;;;12.00;84.30;99571.78;5040357;28;20576;-64
2022/09/29 10:10:22;;;;;;;15.77;11.73;;;;;;;12.06;83.96;99579.19;5044153;28;20052;-64
2022/09/29 10:12:57;;;;;;;17.08;12.18;;;;;;;12.10;83.16;99580.59;5046189;28;20437;-64
2022/09/29 10:15:34;;;;;;;16.13;12.40;;;;;;;12.19;82.79;99580.81;5043125;28;20056;-63
2022/09/29 10:18:15;;;;;;;15.05;11.50;;;;;;;12.17;82.19;99580.97;5020865;28;20055;-63
2022/09/29 10:20:43;;;;;;;16.60;10.80;;;;;;;12.23;82.14;99577.81;5028267;28;20053;-64
2022/09/29 10:23:28;;;;;;;16.35;11.70;;;;;;;12.22;81.51;99584.06;5043802;28;20037;-63
2022/09/29 10:26:03;;;;;;;14.80;11.77;;;;;;;12.20;81.78;99583.31;5041993;28;20076;-65
2022/09/29 10:28:45;;;;;;;10.88;9.75;;;;;;;12.32;81.27;99581.50;5024466;28;20053;-64
2022/09/29 10:31:26;;;;;;;13.77;9.80;;;;;;;12.42;81.23;99585.03;5038461;28;20681;-64
2022/09/29 10:34:16;;;;;;;15.38;11.07;;;;;;;12.55;79.82;99579.56;5029962;28;20060;-64
2022/09/29 10:36:52;;;;;;;11.63;9.65;;;;;;;12.70;79.13;99577.44;5026559;28;20590;-65
2022/09/29 10:39:41;;;;;;;10.40;8.38;;;;;;;12.81;78.64;99583.50;5029425;28;20068;-65
2022/09/29 10:42:23;;;;;;;14.02;9.05;;;;;;;12.91;76.92;99580.91;5037423;28;20091;-64
2022/09/29 10:44:53;;;;;;;11.68;9.10;;;;;;;12.95;74.96;99582.31;5045170;28;20049;-64
2022/09/29 10:47:21;;;;;;;12.93;7.63;;;;;;;12.99;76.30;99582.91;5046157;28;20068;-63
2022/09/29 10:50:07;;;;;;;10.23;8.48;;;;;;;13.05;75.86;99592.94;5027834;28;20056;-64
2022/09/29 10:52:35;;;;;;;12.32;8.35;;;;;;;13.09;74.28;99589.06;5045543;28;20056;-64
2022/09/29 10:55:04;;;;;;;10.30;9.18;;;;;;;13.06;74.66;99587.53;5021105;28;21383;-63
2022/09/29 10:57:32;;;;;;;12.35;8.65;;;;;;;13.17;74.55;99590.09;5013793;28;20061;-64
2022/09/29 11:00:00;;;;;;;9.25;7.93;;;;;;;13.39;74.67;99581.16;5006442;28;20496;-64
2022/09/29 11:02:36;;;;;;;12.55;7.32;;;;;;;13.59;72.42;99589.16;5006361;28;20064;-64
2022/09/29 11:05:23;;;;;;;10.07;7.25;;;;;;;13.57;71.61;99591.09;4990721;28;21132;-64
2022/09/29 11:07:51;;;;;;;6.90;6.20;;;;;;;13.55;70.74;99588.56;5024354;28;20049;-64
2022/09/29 11:10:29;;;;;;;8.98;6.40;;;;;;;13.61;69.63;99585.41;5027419;28;20455;-63
2022/09/29 11:12:59;;;;;;;8.82;6.63;;;;;;;13.60;68.68;99596.97;5031997;28;20713;-64
2022/09/29 11:15:29;;;;;;;8.98;6.22;;;;;;;13.52;69.45;99594.16;5011251;28;20045;-63
2022/09/29 11:17:56;;;;;;;9.02;7.05;;;;;;;13.50;69.69;99605.81;5011753;28;20049;-63
2022/09/29 11:20:27;;;;;;;10.68;8.25;;;;;;;13.61;69.01;99603.91;5032967;28;20049;-63
2022/09/29 11:23:29;;;;;;;10.77;7.55;;;;;;;13.48;69.24;99613.91;5038267;28;20049;-62
2022/09/29 11:26:12;;;;;;;9.27;7.43;;;;;;;13.41;71.14;99610.09;5031140;28;20061;-63
2022/09/29 11:28:52;;;;;;;8.57;5.82;;;;;;;13.32;71.02;99610.91;5037162;28;20053;-63
2022/09/29 11:31:35;;;;;;;11.38;5.90;;;;;;;13.32;71.59;99613.53;5020190;28;20059;-63
2022/09/29 11:34:22;;;;;;;7.78;5.28;;;;;;;13.36;71.70;99613.16;5032992;28;20048;-63
2022/09/29 11:36:59;;;;;;;8.15;6.28;;;;;;;13.36;71.32;99615.78;5041679;28;20053;-63
2022/09/29 11:39:52;;;;;;;6.10;5.32;;;;;;;13.36;71.24;99613.16;5043545;28;20057;-63
2022/09/29 11:42:48;;;;;;;10.23;5.78;;;;;;;13.41;69.46;99613.56;5044461;28;20057;-63
2022/09/29 11:45:17;;;;;;;6.53;5.70;;;;;;;13.36;67.91;99620.25;5047913;28;20059;-62
2022/09/29 11:48:59;;;;;;;8.07;5.97;;;;;;;13.15;69.80;99610.53;5046720;28;20053;-62
2022/09/29 11:51:52;;;;;;;6.95;5.63;;;;;;;13.09;69.94;99612.84;4940927;28;20061;-63
2022/09/29 11:54:28;;;;;;;7.93;5.60;;;;;;;13.13;70.94;99623.03;4966398;28;20644;-63
2022/09/29 11:56:58;;;;;;;8.30;5.20;;;;;;;13.15;70.04;99621.09;5027676;28;20064;-62
2022/09/29 11:59:45;;;;;;;4.88;4.38;;;;;;;13.11;68.10;99617.03;5043446;28;20435;-63